Time;durP1;ratioP1;P1;durP2;ratioP2;P2;SDS_P1;SDS_P2;PMS_P1;PMS_P2;Temp;Humidity;BMP_temperature;BMP_pressure;BME280_temperature;BME280_humidity;BME280_pressure;Samples;Min_cycle;Max_cycle;Signal;HPM_P1;HPM_P2
2019/12/17 00:01:04;;;;;;;11.8;8.9;;;;;;;2.09;85.03711;94275.97;;;;
2019/12/17 00:10:19;;;;;;;13.25;8.65;;;;;;;2.11;85.3252;94287.14;;;;
2019/12/17 00:19:34;;;;;;;12.1;8.15;;;;;;;2.07;85.5459;94279.77;;;;
2019/12/17 00:28:49;;;;;;;9.349999;7.6;;;;;;;2.06;85.90137;94287.87;;;;
2019/12/17 00:38:04;;;;;;;9.3;6.8;;;;;;;2.01;85.98633;94289.43;;;;
2019/12/17 00:47:20;;;;;;;9.3;6.8;;;;;;;2.01;85.98633;94289.43;;;;
2019/12/17 00:56:35;;;;;;;10.15;7.199999;;;;;;;2.04;86.19043;94285.02;;;;
2019/12/17 01:05:50;;;;;;;8.199999;6.550001;;;;;;;2.06;86.26758;94292.28;;;;
2019/12/17 01:15:06;;;;;;;10.1;6.55;;;;;;;2.17;86.35938;94282;;;;
2019/12/17 01:24:21;;;;;;;8.6;6.699999;;;;;;;2.2;86.38965;94295.71;;;;
2019/12/17 01:33:36;;;;;;;9.1;7.05;;;;;;;2.34;86.5;94294.23;;;;
2019/12/17 01:42:51;;;;;;;10.25;6.8;;;;;;;2.36;86.44141;94281.02;;;;
2019/12/17 01:52:07;;;;;;;10.25;6.8;;;;;;;2.36;86.44141;94281.02;;;;
2019/12/17 02:01:22;;;;;;;10.55;8.150002;;;;;;;2.47;86.62109;94279.53;;;;
2019/12/17 02:10:38;;;;;;;10;7.5;;;;;;;2.5;86.77246;94263.53;;;;
2019/12/17 02:19:54;;;;;;;10.7;7.65;;;;;;;2.59;86.96973;94248.02;;;;
2019/12/17 02:29:09;;;;;;;10.65;6.699999;;;;;;;2.64;87.05078;94250.98;;;;
2019/12/17 02:38:24;;;;;;;3.35;2.85;;;;;;;3.22;88.10352;94231.52;;;;
2019/12/17 02:47:40;;;;;;;0.85;0.85;;;;;;;4.79;88.84375;94242.82;;;;
2019/12/17 02:56:55;;;;;;;1;0.9;;;;;;;6.67;87.06641;94242.44;;;;
2019/12/17 03:06:10;;;;;;;1;0.9;;;;;;;6.67;87.06641;94242.44;;;;
2019/12/17 03:15:34;;;;;;;0.7;0.7;;;;;;;7.83;85.24219;94230.2;;;;
2019/12/17 03:24:51;;;;;;;0.95;0.85;;;;;;;9.14;82.68262;94206.84;;;;
2019/12/17 03:34:06;;;;;;;0.8;0.8;;;;;;;9.9;80.7666;94207.01;;;;
2019/12/17 03:43:21;;;;;;;0.8;0.8;;;;;;;10.43;78.69824;94201.49;;;;
2019/12/17 03:52:36;;;;;;;0.9;0.9;;;;;;;10.76;76.875;94202.45;;;;
2019/12/17 04:01:51;;;;;;;0.9;0.9;;;;;;;11.03;75.39258;94196.48;;;;
2019/12/17 04:11:06;;;;;;;0.8;0.8;;;;;;;11.23;73.30469;94201;;;;
2019/12/17 04:18:14;;;;;;;0.8;0.8;;;;;;;11.23;73.30469;94201;;;;
2019/12/17 04:23:30;;;;;;;0.95;0.8;;;;;;;11.46;70.87598;94198.22;;;;
2019/12/17 04:28:30;;;;;;;0.95;0.8;;;;;;;11.46;70.87598;94198.22;;;;
2019/12/17 04:33:31;;;;;;;1.3;0.8;;;;;;;11.51;69.58496;94205.92;;;;
2019/12/17 04:38:32;;;;;;;1.3;0.8;;;;;;;11.51;69.58496;94205.92;;;;
2019/12/17 04:43:47;;;;;;;0.9;0.8;;;;;;;11.59;68.91992;94212.7;;;;
2019/12/17 04:44:49;;;;;;;0.9;0.8;;;;;;;11.59;68.91992;94212.7;;;;
2019/12/17 04:45:50;;;;;;;0.9;0.8;;;;;;;11.59;68.91992;94212.7;;;;
2019/12/17 04:46:51;;;;;;;0.9;0.8;;;;;;;11.59;68.91992;94212.7;;;;
2019/12/17 04:47:52;;;;;;;0.9;0.8;;;;;;;11.59;68.91992;94212.7;;;;
2019/12/17 04:48:53;;;;;;;0.9;0.8;;;;;;;11.59;68.91992;94212.7;;;;
2019/12/17 04:49:54;;;;;;;0.9;0.8;;;;;;;11.59;68.91992;94212.7;;;;
2019/12/17 04:50:55;;;;;;;0.9;0.8;;;;;;;11.59;68.91992;94212.7;;;;
2019/12/17 04:51:56;;;;;;;0.9;0.8;;;;;;;11.59;68.91992;94212.7;;;;
2019/12/17 04:52:57;;;;;;;0.8;0.8;;;;;;;11.58;67.86523;94215;;;;
2019/12/17 04:53:58;;;;;;;0.8;0.8;;;;;;;11.58;67.86523;94215;;;;
2019/12/17 04:55:00;;;;;;;0.8;0.8;;;;;;;11.58;67.86523;94215;;;;
2019/12/17 04:56:01;;;;;;;0.8;0.8;;;;;;;11.58;67.86523;94215;;;;
2019/12/17 04:57:02;;;;;;;0.8;0.8;;;;;;;11.58;67.86523;94215;;;;
2019/12/17 04:58:03;;;;;;;0.8;0.8;;;;;;;11.58;67.86523;94215;;;;
2019/12/17 04:59:04;;;;;;;0.8;0.8;;;;;;;11.58;67.86523;94215;;;;
2019/12/17 05:00:06;;;;;;;0.8;0.8;;;;;;;11.58;67.86523;94215;;;;
2019/12/17 05:01:12;;;;;;;0.8;0.8;;;;;;;11.58;67.86523;94215;;;;
2019/12/17 05:02:14;;;;;;;0.8;0.8;;;;;;;11.58;67.86523;94215;;;;
2019/12/17 05:03:15;;;;;;;0.8;0.8;;;;;;;11.58;67.86523;94215;;;;
2019/12/17 05:04:16;;;;;;;0.9;0.9;;;;;;;11.67;66.91113;94218.04;;;;
2019/12/17 05:05:17;;;;;;;0.9;0.9;;;;;;;11.67;66.91113;94218.04;;;;
2019/12/17 05:06:18;;;;;;;0.9;0.9;;;;;;;11.67;66.91113;94218.04;;;;
2019/12/17 05:07:20;;;;;;;0.9;0.9;;;;;;;11.67;66.91113;94218.04;;;;
2019/12/17 05:08:21;;;;;;;0.9;0.9;;;;;;;11.67;66.91113;94218.04;;;;
2019/12/17 05:09:22;;;;;;;0.9;0.9;;;;;;;11.67;66.91113;94218.04;;;;
2019/12/17 05:10:23;;;;;;;0.9;0.9;;;;;;;11.67;66.91113;94218.04;;;;
2019/12/17 05:11:25;;;;;;;0.9;0.9;;;;;;;11.67;66.91113;94218.04;;;;
2019/12/17 05:12:28;;;;;;;0.9;0.9;;;;;;;11.67;66.91113;94218.04;;;;
2019/12/17 05:13:50;;;;;;;0.9;0.9;;;;;;;11.67;66.91113;94218.04;;;;
2019/12/17 05:15:07;;;;;;;1.45;0.9;;;;;;;11.69;66.36719;94233.04;;;;
2019/12/17 05:16:47;;;;;;;1.45;0.9;;;;;;;11.69;66.36719;94233.04;;;;
2019/12/17 05:17:48;;;;;;;1.45;0.9;;;;;;;11.69;66.36719;94233.04;;;;
2019/12/17 05:18:49;;;;;;;1.45;0.9;;;;;;;11.69;66.36719;94233.04;;;;
2019/12/17 05:19:50;;;;;;;1.45;0.9;;;;;;;11.69;66.36719;94233.04;;;;
2019/12/17 05:20:51;;;;;;;1.45;0.9;;;;;;;11.69;66.36719;94233.04;;;;
2019/12/17 05:21:53;;;;;;;1.45;0.9;;;;;;;11.69;66.36719;94233.04;;;;
2019/12/17 05:22:54;;;;;;;1.45;0.9;;;;;;;11.69;66.36719;94233.04;;;;
2019/12/17 05:23:55;;;;;;;1.45;0.9;;;;;;;11.69;66.36719;94233.04;;;;
2019/12/17 05:24:56;;;;;;;1.65;0.8;;;;;;;11.76;65.20508;94237.23;;;;
2019/12/17 05:25:57;;;;;;;1.65;0.8;;;;;;;11.76;65.20508;94237.23;;;;
2019/12/17 05:26:58;;;;;;;1.65;0.8;;;;;;;11.76;65.20508;94237.23;;;;
2019/12/17 05:28:00;;;;;;;1.65;0.8;;;;;;;11.76;65.20508;94237.23;;;;
2019/12/17 05:29:01;;;;;;;1.65;0.8;;;;;;;11.76;65.20508;94237.23;;;;
2019/12/17 05:30:02;;;;;;;1.65;0.8;;;;;;;11.76;65.20508;94237.23;;;;
2019/12/17 05:31:03;;;;;;;1.65;0.8;;;;;;;11.76;65.20508;94237.23;;;;
2019/12/17 05:32:04;;;;;;;1.65;0.8;;;;;;;11.76;65.20508;94237.23;;;;
2019/12/17 05:33:05;;;;;;;1.65;0.8;;;;;;;11.76;65.20508;94237.23;;;;
2019/12/17 05:34:06;;;;;;;1.65;0.8;;;;;;;11.76;65.20508;94237.23;;;;
2019/12/17 05:35:07;;;;;;;1.65;0.8;;;;;;;11.76;65.20508;94237.23;;;;
2019/12/17 05:36:09;;;;;;;0.9;0.9;;;;;;;11.82;64.70898;94253.19;;;;
2019/12/17 05:37:10;;;;;;;0.9;0.9;;;;;;;11.82;64.70898;94253.19;;;;
2019/12/17 05:38:11;;;;;;;0.9;0.9;;;;;;;11.82;64.70898;94253.19;;;;
2019/12/17 05:39:12;;;;;;;0.9;0.9;;;;;;;11.82;64.70898;94253.19;;;;
2019/12/17 05:40:13;;;;;;;0.9;0.9;;;;;;;11.82;64.70898;94253.19;;;;
2019/12/17 05:41:14;;;;;;;0.9;0.9;;;;;;;11.82;64.70898;94253.19;;;;
2019/12/17 05:42:15;;;;;;;0.9;0.9;;;;;;;11.82;64.70898;94253.19;;;;
2019/12/17 05:43:16;;;;;;;0.9;0.9;;;;;;;11.82;64.70898;94253.19;;;;
2019/12/17 05:44:17;;;;;;;0.9;0.9;;;;;;;11.82;64.70898;94253.19;;;;
2019/12/17 05:45:18;;;;;;;0.9;0.9;;;;;;;11.82;64.70898;94253.19;;;;
2019/12/17 05:46:20;;;;;;;1.4;0.95;;;;;;;11.97;63.42871;94248.22;;;;
2019/12/17 05:47:21;;;;;;;1.4;0.95;;;;;;;11.97;63.42871;94248.22;;;;
2019/12/17 05:48:22;;;;;;;1.4;0.95;;;;;;;11.97;63.42871;94248.22;;;;
2019/12/17 05:49:23;;;;;;;1.4;0.95;;;;;;;11.97;63.42871;94248.22;;;;
2019/12/17 05:50:24;;;;;;;1.4;0.95;;;;;;;11.97;63.42871;94248.22;;;;
2019/12/17 05:51:25;;;;;;;1.4;0.95;;;;;;;11.97;63.42871;94248.22;;;;
2019/12/17 05:52:26;;;;;;;1.4;0.95;;;;;;;11.97;63.42871;94248.22;;;;
2019/12/17 05:53:27;;;;;;;1.4;0.95;;;;;;;11.97;63.42871;94248.22;;;;
2019/12/17 05:54:28;;;;;;;1.4;0.95;;;;;;;11.97;63.42871;94248.22;;;;
2019/12/17 05:55:30;;;;;;;1.4;0.95;;;;;;;11.97;63.42871;94248.22;;;;
2019/12/17 05:56:31;;;;;;;1.45;0.9;;;;;;;12.16;62.36719;94252.95;;;;
2019/12/17 05:57:32;;;;;;;1.45;0.9;;;;;;;12.16;62.36719;94252.95;;;;
2019/12/17 05:58:33;;;;;;;1.45;0.9;;;;;;;12.16;62.36719;94252.95;;;;
2019/12/17 05:59:34;;;;;;;1.45;0.9;;;;;;;12.16;62.36719;94252.95;;;;
2019/12/17 06:00:35;;;;;;;1.45;0.9;;;;;;;12.16;62.36719;94252.95;;;;
2019/12/17 06:01:36;;;;;;;1.45;0.9;;;;;;;12.16;62.36719;94252.95;;;;
2019/12/17 06:02:38;;;;;;;1.45;0.9;;;;;;;12.16;62.36719;94252.95;;;;
2019/12/17 06:03:39;;;;;;;1.45;0.9;;;;;;;12.16;62.36719;94252.95;;;;
2019/12/17 06:04:40;;;;;;;1.45;0.9;;;;;;;12.16;62.36719;94252.95;;;;
2019/12/17 06:05:41;;;;;;;1.45;0.9;;;;;;;12.16;62.36719;94252.95;;;;
2019/12/17 06:06:42;;;;;;;1.45;0.9;;;;;;;12.16;62.36719;94252.95;;;;
2019/12/17 06:07:43;;;;;;;1.3;1.1;;;;;;;12.41;61.05273;94276.11;;;;
2019/12/17 06:08:44;;;;;;;1.3;1.1;;;;;;;12.41;61.05273;94276.11;;;;
2019/12/17 06:09:45;;;;;;;1.3;1.1;;;;;;;12.41;61.05273;94276.11;;;;
2019/12/17 06:10:47;;;;;;;1.3;1.1;;;;;;;12.41;61.05273;94276.11;;;;
2019/12/17 06:11:48;;;;;;;1.3;1.1;;;;;;;12.41;61.05273;94276.11;;;;
2019/12/17 06:12:49;;;;;;;1.3;1.1;;;;;;;12.41;61.05273;94276.11;;;;
2019/12/17 06:13:50;;;;;;;1.3;1.1;;;;;;;12.41;61.05273;94276.11;;;;
2019/12/17 06:14:51;;;;;;;1.3;1.1;;;;;;;12.41;61.05273;94276.11;;;;
2019/12/17 06:15:52;;;;;;;1.3;1.1;;;;;;;12.41;61.05273;94276.11;;;;
2019/12/17 06:16:53;;;;;;;1.3;1.1;;;;;;;12.41;61.05273;94276.11;;;;
2019/12/17 06:17:54;;;;;;;0.9;0.9;;;;;;;12.56;60.30859;94289.61;;;;
2019/12/17 06:18:57;;;;;;;0.9;0.9;;;;;;;12.56;60.30859;94289.61;;;;
2019/12/17 06:20:07;;;;;;;0.9;0.9;;;;;;;12.56;60.30859;94289.61;;;;
2019/12/17 06:21:16;;;;;;;0.9;0.9;;;;;;;12.56;60.30859;94289.61;;;;
2019/12/17 06:27:26;;;;;;;0.9;0.9;;;;;;;12.56;60.30859;94289.61;;;;
2019/12/17 06:28:27;;;;;;;0.8;0.8;;;;;;;12.68;58.87793;94297.34;;;;
2019/12/17 06:29:29;;;;;;;0.8;0.8;;;;;;;12.68;58.87793;94297.34;;;;
2019/12/17 06:30:30;;;;;;;0.8;0.8;;;;;;;12.68;58.87793;94297.34;;;;
2019/12/17 06:31:31;;;;;;;0.8;0.8;;;;;;;12.68;58.87793;94297.34;;;;
2019/12/17 06:32:32;;;;;;;0.8;0.8;;;;;;;12.68;58.87793;94297.34;;;;
2019/12/17 06:33:33;;;;;;;0.8;0.8;;;;;;;12.68;58.87793;94297.34;;;;
2019/12/17 06:34:34;;;;;;;0.8;0.8;;;;;;;12.68;58.87793;94297.34;;;;
2019/12/17 06:35:35;;;;;;;0.8;0.8;;;;;;;12.68;58.87793;94297.34;;;;
2019/12/17 06:36:36;;;;;;;0.8;0.8;;;;;;;12.68;58.87793;94297.34;;;;
2019/12/17 06:37:37;;;;;;;0.8;0.8;;;;;;;12.68;58.87793;94297.34;;;;
2019/12/17 06:38:39;;;;;;;0.8;0.8;;;;;;;12.68;58.87793;94297.34;;;;
2019/12/17 06:39:40;;;;;;;0.8;0.8;;;;;;;12.7;58.30664;94309.25;;;;
2019/12/17 06:40:41;;;;;;;0.8;0.8;;;;;;;12.7;58.30664;94309.25;;;;
2019/12/17 06:41:42;;;;;;;0.8;0.8;;;;;;;12.7;58.30664;94309.25;;;;
2019/12/17 06:42:43;;;;;;;0.8;0.8;;;;;;;12.7;58.30664;94309.25;;;;
2019/12/17 06:43:44;;;;;;;0.8;0.8;;;;;;;12.7;58.30664;94309.25;;;;
2019/12/17 06:44:45;;;;;;;0.8;0.8;;;;;;;12.7;58.30664;94309.25;;;;
2019/12/17 06:45:46;;;;;;;0.8;0.8;;;;;;;12.7;58.30664;94309.25;;;;
2019/12/17 06:46:47;;;;;;;0.8;0.8;;;;;;;12.7;58.30664;94309.25;;;;
2019/12/17 06:47:48;;;;;;;0.8;0.8;;;;;;;12.7;58.30664;94309.25;;;;
2019/12/17 06:48:50;;;;;;;0.8;0.8;;;;;;;12.7;58.30664;94309.25;;;;
2019/12/17 06:49:51;;;;;;;0.9;0.9;;;;;;;12.86;57.36621;94327.51;;;;
2019/12/17 06:50:52;;;;;;;0.9;0.9;;;;;;;12.86;57.36621;94327.51;;;;
2019/12/17 06:51:53;;;;;;;0.9;0.9;;;;;;;12.86;57.36621;94327.51;;;;
2019/12/17 06:52:54;;;;;;;0.9;0.9;;;;;;;12.86;57.36621;94327.51;;;;
2019/12/17 06:53:55;;;;;;;0.9;0.9;;;;;;;12.86;57.36621;94327.51;;;;
2019/12/17 06:54:56;;;;;;;0.9;0.9;;;;;;;12.86;57.36621;94327.51;;;;
2019/12/17 06:55:57;;;;;;;0.9;0.9;;;;;;;12.86;57.36621;94327.51;;;;
2019/12/17 06:57:00;;;;;;;0.9;0.9;;;;;;;12.86;57.36621;94327.51;;;;
2019/12/17 06:59:00;;;;;;;0.9;0.9;;;;;;;12.86;57.36621;94327.51;;;;
2019/12/17 07:01:03;;;;;;;0.9;0.9;;;;;;;12.86;57.36621;94327.51;;;;
2019/12/17 07:02:06;;;;;;;1;0.95;;;;;;;12.86;57.09668;94357.73;;;;
2019/12/17 07:03:09;;;;;;;1;0.95;;;;;;;12.86;57.09668;94357.73;;;;
2019/12/17 07:04:10;;;;;;;1;0.95;;;;;;;12.86;57.09668;94357.73;;;;
2019/12/17 07:05:12;;;;;;;1;0.95;;;;;;;12.86;57.09668;94357.73;;;;
2019/12/17 07:06:13;;;;;;;1;0.95;;;;;;;12.86;57.09668;94357.73;;;;
2019/12/17 07:07:14;;;;;;;1;0.95;;;;;;;12.86;57.09668;94357.73;;;;
2019/12/17 07:08:15;;;;;;;1;0.95;;;;;;;12.86;57.09668;94357.73;;;;
2019/12/17 07:09:16;;;;;;;1;0.95;;;;;;;12.86;57.09668;94357.73;;;;
2019/12/17 07:10:17;;;;;;;1;0.95;;;;;;;12.86;57.09668;94357.73;;;;
2019/12/17 07:11:18;;;;;;;1.1;1;;;;;;;12.93;56.54297;94368.69;;;;
2019/12/17 07:12:19;;;;;;;1.1;1;;;;;;;12.93;56.54297;94368.69;;;;
2019/12/17 07:13:20;;;;;;;1.1;1;;;;;;;12.93;56.54297;94368.69;;;;
2019/12/17 07:14:21;;;;;;;1.1;1;;;;;;;12.93;56.54297;94368.69;;;;
2019/12/17 07:15:23;;;;;;;1.1;1;;;;;;;12.93;56.54297;94368.69;;;;
2019/12/17 07:16:24;;;;;;;1.1;1;;;;;;;12.93;56.54297;94368.69;;;;
2019/12/17 07:17:25;;;;;;;1.1;1;;;;;;;12.93;56.54297;94368.69;;;;
2019/12/17 07:18:26;;;;;;;1.1;1;;;;;;;12.93;56.54297;94368.69;;;;
2019/12/17 07:19:27;;;;;;;1.1;1;;;;;;;12.93;56.54297;94368.69;;;;
2019/12/17 07:20:28;;;;;;;1.1;1;;;;;;;12.93;56.54297;94368.69;;;;
2019/12/17 07:21:29;;;;;;;1.4;0.9;;;;;;;12.87;56.0918;94384.26;;;;
2019/12/17 07:22:30;;;;;;;1.4;0.9;;;;;;;12.87;56.0918;94384.26;;;;
2019/12/17 07:23:31;;;;;;;1.4;0.9;;;;;;;12.87;56.0918;94384.26;;;;
2019/12/17 07:24:32;;;;;;;1.4;0.9;;;;;;;12.87;56.0918;94384.26;;;;
2019/12/17 07:25:36;;;;;;;1.4;0.9;;;;;;;12.87;56.0918;94384.26;;;;
2019/12/17 07:26:42;;;;;;;1.4;0.9;;;;;;;12.87;56.0918;94384.26;;;;
2019/12/17 07:27:44;;;;;;;1.4;0.9;;;;;;;12.87;56.0918;94384.26;;;;
2019/12/17 07:28:46;;;;;;;1.4;0.9;;;;;;;12.87;56.0918;94384.26;;;;
2019/12/17 07:29:47;;;;;;;1.4;0.9;;;;;;;12.87;56.0918;94384.26;;;;
2019/12/17 07:30:48;;;;;;;1.4;0.9;;;;;;;12.87;56.0918;94384.26;;;;
2019/12/17 07:31:49;;;;;;;1.4;0.9;;;;;;;12.87;56.0918;94384.26;;;;
2019/12/17 07:32:50;;;;;;;1.5;1;;;;;;;12.89;55.84766;94394.17;;;;
2019/12/17 07:33:51;;;;;;;1.5;1;;;;;;;12.89;55.84766;94394.17;;;;
2019/12/17 07:34:52;;;;;;;1.5;1;;;;;;;12.89;55.84766;94394.17;;;;
2019/12/17 07:35:53;;;;;;;1.5;1;;;;;;;12.89;55.84766;94394.17;;;;
2019/12/17 07:36:54;;;;;;;1.5;1;;;;;;;12.89;55.84766;94394.17;;;;
2019/12/17 07:37:56;;;;;;;1.5;1;;;;;;;12.89;55.84766;94394.17;;;;
2019/12/17 07:38:57;;;;;;;1.5;1;;;;;;;12.89;55.84766;94394.17;;;;
2019/12/17 07:39:58;;;;;;;1.5;1;;;;;;;12.89;55.84766;94394.17;;;;
2019/12/17 07:40:59;;;;;;;1.5;1;;;;;;;12.89;55.84766;94394.17;;;;
2019/12/17 07:42:00;;;;;;;1.5;1;;;;;;;12.89;55.84766;94394.17;;;;
2019/12/17 07:43:02;;;;;;;0.9;0.9;;;;;;;12.94;55.45313;94399.16;;;;
2019/12/17 07:44:03;;;;;;;0.9;0.9;;;;;;;12.94;55.45313;94399.16;;;;
2019/12/17 07:45:04;;;;;;;0.9;0.9;;;;;;;12.94;55.45313;94399.16;;;;
2019/12/17 07:46:05;;;;;;;0.9;0.9;;;;;;;12.94;55.45313;94399.16;;;;
2019/12/17 07:47:06;;;;;;;0.9;0.9;;;;;;;12.94;55.45313;94399.16;;;;
2019/12/17 07:48:07;;;;;;;0.9;0.9;;;;;;;12.94;55.45313;94399.16;;;;
2019/12/17 07:55:16;;;;;;;3.7;2.3;;;;;;;12.96;55.06641;94407.84;;;;
2019/12/17 08:04:31;;;;;;;0.9;0.9;;;;;;;12.98;54.9707;94423.28;;;;
2019/12/17 08:13:46;;;;;;;0.9;0.9;;;;;;;12.98;54.9707;94423.28;;;;
2019/12/17 08:23:02;;;;;;;0.9;0.9;;;;;;;13.13;54.80469;94442.42;;;;
2019/12/17 08:32:17;;;;;;;1.8;1.05;;;;;;;13.24;54.28809;94448.52;;;;
2019/12/17 08:54:55;;;;;;;1.55;1;;;;;;;13.35;53.72754;94484.82;;;;
2019/12/17 09:04:10;;;;;;;1.4;0.9;;;;;;;13.45;53.37109;94489.43;;;;
2019/12/17 09:13:25;;;;;;;0.95;0.95;;;;;;;13.51;53.46582;94501.5;;;;
2019/12/17 09:22:40;;;;;;;1.35;1.1;;;;;;;13.72;53.25195;94509.88;;;;
2019/12/17 09:31:55;;;;;;;1.2;1;;;;;;;13.95;52.82422;94508.86;;;;
2019/12/17 09:41:11;;;;;;;1;1;;;;;;;14.32;52.27051;94528.34;;;;
2019/12/17 09:50:26;;;;;;;1.1;0.9;;;;;;;14.69;51.19531;94524.64;;;;
2019/12/17 09:59:44;;;;;;;1.1;0.9;;;;;;;14.69;51.19531;94524.64;;;;
2019/12/17 10:09:00;;;;;;;1.1;1.05;;;;;;;15.23;50.24414;94518.73;;;;
2019/12/17 10:18:16;;;;;;;0.9;0.9;;;;;;;15.63;49.40723;94518.86;;;;
2019/12/17 10:27:31;;;;;;;1.95;0.9;;;;;;;15.84;48.92969;94516.2;;;;
2019/12/17 10:36:46;;;;;;;1.7;1.1;;;;;;;15.85;49.10547;94521.48;;;;
2019/12/17 10:46:01;;;;;;;1.5;1.4;;;;;;;15.79;49.45801;94510.82;;;;
2019/12/17 10:55:16;;;;;;;2.55;1.3;;;;;;;15.72;49.36328;94507.62;;;;
2019/12/17 11:04:33;;;;;;;1.2;1.1;;;;;;;15.73;48.63281;94501.06;;;;
2019/12/17 11:13:49;;;;;;;1.2;1.1;;;;;;;15.73;48.63281;94501.06;;;;
2019/12/17 11:23:04;;;;;;;2.35;1.2;;;;;;;15.8;48.71777;94493.37;;;;
2019/12/17 11:32:19;;;;;;;1.45;1.3;;;;;;;15.93;48.4043;94497.33;;;;
2019/12/17 11:41:34;;;;;;;1.35;1.25;;;;;;;15.84;48.16602;94485.31;;;;
2019/12/17 11:50:50;;;;;;;2.750001;1.6;;;;;;;15.65;48.43945;94481.25;;;;
2019/12/17 12:00:05;;;;;;;1.6;1.3;;;;;;;15.41;48.77148;94485.44;;;;
2019/12/17 12:09:20;;;;;;;2.8;1.3;;;;;;;15.25;48.91699;94492.07;;;;
2019/12/17 12:18:35;;;;;;;2.35;1.5;;;;;;;15.1;49.04297;94488.5;;;;
2019/12/17 12:27:50;;;;;;;2.35;1.5;;;;;;;15.1;49.04297;94488.5;;;;
2019/12/17 12:37:06;;;;;;;4.25;1.2;;;;;;;15.09;49.11914;94469.06;;;;
2019/12/17 12:44:13;;;;;;;1.25;1.15;;;;;;;15.01;49.25098;94485.58;;;;
2019/12/17 12:53:29;;;;;;;1.8;1.4;;;;;;;14.78;49.68359;94482.61;;;;
2019/12/17 13:02:44;;;;;;;1.9;1.3;;;;;;;14.41;50.06445;94480.89;;;;
2019/12/17 13:11:59;;;;;;;2.6;1.4;;;;;;;14.08;50.80957;94478.44;;;;
2019/12/17 13:21:14;;;;;;;2.6;1.4;;;;;;;14.08;50.80957;94478.44;;;;
2019/12/17 13:30:38;;;;;;;2.85;1.5;;;;;;;13.67;51.63086;94488.59;;;;
2019/12/17 13:31:43;;;;;;;2.85;1.5;;;;;;;13.67;51.63086;94488.59;;;;
2019/12/17 13:32:44;;;;;;;2.85;1.5;;;;;;;13.67;51.63086;94488.59;;;;
2019/12/17 13:33:45;;;;;;;2.8;1.5;;;;;;;13.55;51.55078;94508.81;;;;
2019/12/17 13:34:46;;;;;;;2.8;1.5;;;;;;;13.55;51.55078;94508.81;;;;
2019/12/17 13:35:48;;;;;;;2.8;1.5;;;;;;;13.55;51.55078;94508.81;;;;
2019/12/17 13:36:49;;;;;;;2.8;1.5;;;;;;;13.55;51.55078;94508.81;;;;
2019/12/17 13:37:50;;;;;;;2.8;1.5;;;;;;;13.55;51.55078;94508.81;;;;
2019/12/17 13:38:51;;;;;;;2.8;1.5;;;;;;;13.55;51.55078;94508.81;;;;
2019/12/17 13:39:52;;;;;;;2.8;1.5;;;;;;;13.55;51.55078;94508.81;;;;
2019/12/17 13:40:53;;;;;;;2.8;1.5;;;;;;;13.55;51.55078;94508.81;;;;
2019/12/17 13:41:54;;;;;;;2.8;1.5;;;;;;;13.55;51.55078;94508.81;;;;
2019/12/17 13:42:56;;;;;;;2.8;1.5;;;;;;;13.55;51.55078;94508.81;;;;
2019/12/17 13:43:57;;;;;;;5.850001;1.8;;;;;;;13.44;51.47363;94510.3;;;;
2019/12/17 13:44:58;;;;;;;5.850001;1.8;;;;;;;13.44;51.47363;94510.3;;;;
2019/12/17 13:45:59;;;;;;;5.850001;1.8;;;;;;;13.44;51.47363;94510.3;;;;
2019/12/17 13:47:00;;;;;;;5.850001;1.8;;;;;;;13.44;51.47363;94510.3;;;;
2019/12/17 13:48:01;;;;;;;5.850001;1.8;;;;;;;13.44;51.47363;94510.3;;;;
2019/12/17 13:49:02;;;;;;;5.850001;1.8;;;;;;;13.44;51.47363;94510.3;;;;
2019/12/17 13:50:05;;;;;;;5.850001;1.8;;;;;;;13.44;51.47363;94510.3;;;;
2019/12/17 13:51:06;;;;;;;5.850001;1.8;;;;;;;13.44;51.47363;94510.3;;;;
2019/12/17 13:52:07;;;;;;;5.850001;1.8;;;;;;;13.44;51.47363;94510.3;;;;
2019/12/17 13:53:08;;;;;;;5.850001;1.8;;;;;;;13.44;51.47363;94510.3;;;;
2019/12/17 13:54:09;;;;;;;3.5;1.4;;;;;;;13.33;51.59082;94520.09;;;;
2019/12/17 13:55:14;;;;;;;3.5;1.4;;;;;;;13.33;51.59082;94520.09;;;;
2019/12/17 13:56:19;;;;;;;3.5;1.4;;;;;;;13.33;51.59082;94520.09;;;;
2019/12/17 13:57:23;;;;;;;3.5;1.4;;;;;;;13.33;51.59082;94520.09;;;;
2019/12/17 13:58:25;;;;;;;3.5;1.4;;;;;;;13.33;51.59082;94520.09;;;;
2019/12/17 13:59:26;;;;;;;3.5;1.4;;;;;;;13.33;51.59082;94520.09;;;;
2019/12/17 14:00:31;;;;;;;3.5;1.4;;;;;;;13.33;51.59082;94520.09;;;;
2019/12/17 14:01:34;;;;;;;3.5;1.4;;;;;;;13.33;51.59082;94520.09;;;;
2019/12/17 14:02:36;;;;;;;3.5;1.4;;;;;;;13.33;51.59082;94520.09;;;;
2019/12/17 14:03:37;;;;;;;3.5;1.4;;;;;;;13.33;51.59082;94520.09;;;;
2019/12/17 14:04:38;;;;;;;3.5;1.4;;;;;;;13.33;51.59082;94520.09;;;;
2019/12/17 14:05:39;;;;;;;2.2;1.45;;;;;;;13.11;51.74805;94531.72;;;;
2019/12/17 14:06:41;;;;;;;2.2;1.45;;;;;;;13.11;51.74805;94531.72;;;;
2019/12/17 14:07:42;;;;;;;2.2;1.45;;;;;;;13.11;51.74805;94531.72;;;;
2019/12/17 14:08:43;;;;;;;2.2;1.45;;;;;;;13.11;51.74805;94531.72;;;;
2019/12/17 14:09:45;;;;;;;2.2;1.45;;;;;;;13.11;51.74805;94531.72;;;;
2019/12/17 14:10:46;;;;;;;2.2;1.45;;;;;;;13.11;51.74805;94531.72;;;;
2019/12/17 14:11:47;;;;;;;2.2;1.45;;;;;;;13.11;51.74805;94531.72;;;;
2019/12/17 14:12:48;;;;;;;2.2;1.45;;;;;;;13.11;51.74805;94531.72;;;;
2019/12/17 14:13:49;;;;;;;2.2;1.45;;;;;;;13.11;51.74805;94531.72;;;;
2019/12/17 14:14:51;;;;;;;2.2;1.45;;;;;;;13.11;51.74805;94531.72;;;;
2019/12/17 14:15:54;;;;;;;3.9;1.6;;;;;;;12.84;51.94434;94539.08;;;;
2019/12/17 14:17:05;;;;;;;3.9;1.6;;;;;;;12.84;51.94434;94539.08;;;;
2019/12/17 14:18:19;;;;;;;3.9;1.6;;;;;;;12.84;51.94434;94539.08;;;;
2019/12/17 14:20:31;;;;;;;3.9;1.6;;;;;;;12.84;51.94434;94539.08;;;;
2019/12/17 14:21:34;;;;;;;3.9;1.6;;;;;;;12.84;51.94434;94539.08;;;;
2019/12/17 14:22:35;;;;;;;3.9;1.6;;;;;;;12.84;51.94434;94539.08;;;;
2019/12/17 14:23:36;;;;;;;3.9;1.6;;;;;;;12.84;51.94434;94539.08;;;;
2019/12/17 14:24:38;;;;;;;3.9;1.6;;;;;;;12.84;51.94434;94539.08;;;;
2019/12/17 14:25:39;;;;;;;3.9;1.6;;;;;;;12.84;51.94434;94539.08;;;;
2019/12/17 14:26:40;;;;;;;3.85;1.7;;;;;;;12.52;52.24023;94532.25;;;;
2019/12/17 14:27:41;;;;;;;3.85;1.7;;;;;;;12.52;52.24023;94532.25;;;;
2019/12/17 14:28:42;;;;;;;3.85;1.7;;;;;;;12.52;52.24023;94532.25;;;;
2019/12/17 14:29:43;;;;;;;3.85;1.7;;;;;;;12.52;52.24023;94532.25;;;;
2019/12/17 14:31:21;;;;;;;3.85;1.7;;;;;;;12.52;52.24023;94532.25;;;;
2019/12/17 14:32:25;;;;;;;3.85;1.7;;;;;;;12.52;52.24023;94532.25;;;;
2019/12/17 14:33:27;;;;;;;3.85;1.7;;;;;;;12.52;52.24023;94532.25;;;;
2019/12/17 14:34:32;;;;;;;3.85;1.7;;;;;;;12.52;52.24023;94532.25;;;;
2019/12/17 14:35:36;;;;;;;3.85;1.7;;;;;;;12.52;52.24023;94532.25;;;;
2019/12/17 14:36:38;;;;;;;3.85;1.8;;;;;;;12.21;52.82129;94539.03;;;;
2019/12/17 14:37:40;;;;;;;3.85;1.8;;;;;;;12.21;52.82129;94539.03;;;;
2019/12/17 14:38:41;;;;;;;3.85;1.8;;;;;;;12.21;52.82129;94539.03;;;;
2019/12/17 14:39:43;;;;;;;3.85;1.8;;;;;;;12.21;52.82129;94539.03;;;;
2019/12/17 14:40:44;;;;;;;3.85;1.8;;;;;;;12.21;52.82129;94539.03;;;;
2019/12/17 14:41:45;;;;;;;3.85;1.8;;;;;;;12.21;52.82129;94539.03;;;;
2019/12/17 14:42:46;;;;;;;3.85;1.8;;;;;;;12.21;52.82129;94539.03;;;;
2019/12/17 14:43:47;;;;;;;3.85;1.8;;;;;;;12.21;52.82129;94539.03;;;;
2019/12/17 14:44:48;;;;;;;3.85;1.8;;;;;;;12.21;52.82129;94539.03;;;;
2019/12/17 14:45:49;;;;;;;3.85;1.8;;;;;;;12.21;52.82129;94539.03;;;;
2019/12/17 14:46:51;;;;;;;3.85;1.8;;;;;;;12.21;52.82129;94539.03;;;;
2019/12/17 14:47:52;;;;;;;2.1;1.4;;;;;;;12.05;53.14746;94534.47;;;;
2019/12/17 14:48:53;;;;;;;2.1;1.4;;;;;;;12.05;53.14746;94534.47;;;;
2019/12/17 14:49:54;;;;;;;2.1;1.4;;;;;;;12.05;53.14746;94534.47;;;;
2019/12/17 14:50:55;;;;;;;2.1;1.4;;;;;;;12.05;53.14746;94534.47;;;;
2019/12/17 14:51:56;;;;;;;2.1;1.4;;;;;;;12.05;53.14746;94534.47;;;;
2019/12/17 14:52:57;;;;;;;2.1;1.4;;;;;;;12.05;53.14746;94534.47;;;;
2019/12/17 14:53:58;;;;;;;2.1;1.4;;;;;;;12.05;53.14746;94534.47;;;;
2019/12/17 14:54:59;;;;;;;2.1;1.4;;;;;;;12.05;53.14746;94534.47;;;;
2019/12/17 14:56:00;;;;;;;2.1;1.4;;;;;;;12.05;53.14746;94534.47;;;;
2019/12/17 14:57:02;;;;;;;2.1;1.4;;;;;;;12.05;53.14746;94534.47;;;;
2019/12/17 14:58:03;;;;;;;2.8;1.7;;;;;;;11.94;53.38184;94532.78;;;;
2019/12/17 14:59:04;;;;;;;2.8;1.7;;;;;;;11.94;53.38184;94532.78;;;;
2019/12/17 15:00:05;;;;;;;2.8;1.7;;;;;;;11.94;53.38184;94532.78;;;;
2019/12/17 15:01:06;;;;;;;2.8;1.7;;;;;;;11.94;53.38184;94532.78;;;;
2019/12/17 15:02:07;;;;;;;2.8;1.7;;;;;;;11.94;53.38184;94532.78;;;;
2019/12/17 15:03:08;;;;;;;2.8;1.7;;;;;;;11.94;53.38184;94532.78;;;;
2019/12/17 15:04:09;;;;;;;2.8;1.7;;;;;;;11.94;53.38184;94532.78;;;;
2019/12/17 15:05:11;;;;;;;2.8;1.7;;;;;;;11.94;53.38184;94532.78;;;;
2019/12/17 15:06:12;;;;;;;2.8;1.7;;;;;;;11.94;53.38184;94532.78;;;;
2019/12/17 15:07:13;;;;;;;2.8;1.7;;;;;;;11.94;53.38184;94532.78;;;;
2019/12/17 15:08:14;;;;;;;2.8;1.7;;;;;;;11.94;53.38184;94532.78;;;;
2019/12/17 15:09:15;;;;;;;5.25;2.4;;;;;;;11.74;53.69238;94526.46;;;;
2019/12/17 15:10:17;;;;;;;5.25;2.4;;;;;;;11.74;53.69238;94526.46;;;;
2019/12/17 15:11:18;;;;;;;5.25;2.4;;;;;;;11.74;53.69238;94526.46;;;;
2019/12/17 15:12:19;;;;;;;5.25;2.4;;;;;;;11.74;53.69238;94526.46;;;;
2019/12/17 15:13:20;;;;;;;5.25;2.4;;;;;;;11.74;53.69238;94526.46;;;;
2019/12/17 15:14:21;;;;;;;5.25;2.4;;;;;;;11.74;53.69238;94526.46;;;;
2019/12/17 15:15:23;;;;;;;5.25;2.4;;;;;;;11.74;53.69238;94526.46;;;;
2019/12/17 15:16:24;;;;;;;5.25;2.4;;;;;;;11.74;53.69238;94526.46;;;;
2019/12/17 15:17:26;;;;;;;5.25;2.4;;;;;;;11.74;53.69238;94526.46;;;;
2019/12/17 15:18:27;;;;;;;5.25;2.4;;;;;;;11.74;53.69238;94526.46;;;;
2019/12/17 15:19:28;;;;;;;2.65;1.9;;;;;;;11.67;53.75879;94526.82;;;;
2019/12/17 15:20:29;;;;;;;2.65;1.9;;;;;;;11.67;53.75879;94526.82;;;;
2019/12/17 15:21:30;;;;;;;2.65;1.9;;;;;;;11.67;53.75879;94526.82;;;;
2019/12/17 15:22:31;;;;;;;2.65;1.9;;;;;;;11.67;53.75879;94526.82;;;;